sensor_id;sensor_type;location;lat;lon;timestamp;P1;P2;P0
76679;PMS5003;65597;51.520;-0.224;2022-12-18T00:00:26;55;47;
76679;PMS5003;65597;51.520;-0.224;2022-12-18T00:02:52;55;44;
76679;PMS5003;65597;51.520;-0.224;2022-12-18T00:05:17;54;48;
76679;PMS5003;65597;51.520;-0.224;2022-12-18T00:07:43;56;49;
76679;PMS5003;65597;51.520;-0.224;2022-12-18T00:10:08;53;47;
76679;PMS5003;65597;51.520;-0.224;2022-12-18T00:12:34;56;51;
76679;PMS5003;65597;51.520;-0.224;2022-12-18T00:14:59;53;47;
76679;PMS5003;65597;51.520;-0.224;2022-12-18T00:17:24;53;47;
76679;PMS5003;65597;51.520;-0.224;2022-12-18T00:19:49;55;47;
76679;PMS5003;65597;51.520;-0.224;2022-12-18T00:22:18;53;46;
76679;PMS5003;65597;51.520;-0.224;2022-12-18T00:24:40;57;49;
76679;PMS5003;65597;51.520;-0.224;2022-12-18T00:27:06;51;47;
76679;PMS5003;65597;51.520;-0.224;2022-12-18T00:29:32;56;45;
76679;PMS5003;65597;51.520;-0.224;2022-12-18T00:31:57;51;46;
76679;PMS5003;65597;51.520;-0.224;2022-12-18T00:34:23;59;50;
76679;PMS5003;65597;51.520;-0.224;2022-12-18T00:36:48;44;41;
76679;PMS5003;65597;51.520;-0.224;2022-12-18T00:39:14;53;45;
76679;PMS5003;65597;51.520;-0.224;2022-12-18T00:41:39;53;46;
76679;PMS5003;65597;51.520;-0.224;2022-12-18T00:44:05;55;47;
76679;PMS5003;65597;51.520;-0.224;2022-12-18T00:46:30;63;49;
76679;PMS5003;65597;51.520;-0.224;2022-12-18T00:48:55;45;41;
76679;PMS5003;65597;51.520;-0.224;2022-12-18T00:51:21;47;43;
76679;PMS5003;65597;51.520;-0.224;2022-12-18T00:53:46;56;51;
76679;PMS5003;65597;51.520;-0.224;2022-12-18T00:56:12;61;53;
76679;PMS5003;65597;51.520;-0.224;2022-12-18T00:58:37;55;48;
76679;PMS5003;65597;51.520;-0.224;2022-12-18T01:01:03;48;43;
76679;PMS5003;65597;51.520;-0.224;2022-12-18T01:03:27;55;47;
76679;PMS5003;65597;51.520;-0.224;2022-12-18T01:05:53;57;51;
76679;PMS5003;65597;51.520;-0.224;2022-12-18T01:08:18;53;44;
76679;PMS5003;65597;51.520;-0.224;2022-12-18T01:10:44;52;42;
76679;PMS5003;65597;51.520;-0.224;2022-12-18T01:13:09;60;53;
76679;PMS5003;65597;51.520;-0.224;2022-12-18T01:15:34;57;50;
76679;PMS5003;65597;51.520;-0.224;2022-12-18T01:18:00;51;46;
76679;PMS5003;65597;51.520;-0.224;2022-12-18T01:20:26;57;49;
76679;PMS5003;65597;51.520;-0.224;2022-12-18T01:22:51;58;50;
76679;PMS5003;65597;51.520;-0.224;2022-12-18T01:25:17;50;48;
76679;PMS5003;65597;51.520;-0.224;2022-12-18T01:27:42;60;49;
76679;PMS5003;65597;51.520;-0.224;2022-12-18T01:30:08;49;43;
76679;PMS5003;65597;51.520;-0.224;2022-12-18T01:32:33;53;50;
76679;PMS5003;65597;51.520;-0.224;2022-12-18T01:34:58;52;47;
76679;PMS5003;65597;51.520;-0.224;2022-12-18T01:37:23;54;47;
76679;PMS5003;65597;51.520;-0.224;2022-12-18T01:39:49;53;46;
76679;PMS5003;65597;51.520;-0.224;2022-12-18T01:42:15;51;48;
76679;PMS5003;65597;51.520;-0.224;2022-12-18T01:47:05;57;47;
76679;PMS5003;65597;51.520;-0.224;2022-12-18T01:49:30;61;55;
76679;PMS5003;65597;51.520;-0.224;2022-12-18T01:51:56;58;50;
76679;PMS5003;65597;51.520;-0.224;2022-12-18T01:54:21;48;45;
76679;PMS5003;65597;51.520;-0.224;2022-12-18T01:56:47;61;51;
76679;PMS5003;65597;51.520;-0.224;2022-12-18T01:59:12;61;52;
76679;PMS5003;65597;51.520;-0.224;2022-12-18T02:01:38;57;54;
76679;PMS5003;65597;51.520;-0.224;2022-12-18T02:06:32;63;52;
76679;PMS5003;65597;51.520;-0.224;2022-12-18T02:08:58;61;51;
76679;PMS5003;65597;51.520;-0.224;2022-12-18T02:11:23;53;48;
76679;PMS5003;65597;51.520;-0.224;2022-12-18T02:13:46;54;46;
76679;PMS5003;65597;51.520;-0.224;2022-12-18T02:16:13;54;49;
76679;PMS5003;65597;51.520;-0.224;2022-12-18T02:18:37;57;48;
76679;PMS5003;65597;51.520;-0.224;2022-12-18T02:21:04;54;43;
76679;PMS5003;65597;51.520;-0.224;2022-12-18T02:23:38;55;48;
76679;PMS5003;65597;51.520;-0.224;2022-12-18T02:25:55;55;45;
76679;PMS5003;65597;51.520;-0.224;2022-12-18T02:28:18;54;48;
76679;PMS5003;65597;51.520;-0.224;2022-12-18T02:30:45;59;52;
76679;PMS5003;65597;51.520;-0.224;2022-12-18T02:33:09;49;40;
76679;PMS5003;65597;51.520;-0.224;2022-12-18T02:35:34;52;44;
76679;PMS5003;65597;51.520;-0.224;2022-12-18T02:37:59;52;46;
76679;PMS5003;65597;51.520;-0.224;2022-12-18T02:40:25;47;44;
76679;PMS5003;65597;51.520;-0.224;2022-12-18T02:42:50;51;47;
76679;PMS5003;65597;51.520;-0.224;2022-12-18T02:45:15;52;45;
76679;PMS5003;65597;51.520;-0.224;2022-12-18T02:47:42;49;41;
76679;PMS5003;65597;51.520;-0.224;2022-12-18T02:50:08;52;44;
76679;PMS5003;65597;51.520;-0.224;2022-12-18T02:52:34;57;49;
76679;PMS5003;65597;51.520;-0.224;2022-12-18T02:55:00;49;45;
76679;PMS5003;65597;51.520;-0.224;2022-12-18T02:57:24;48;41;
76679;PMS5003;65597;51.520;-0.224;2022-12-18T02:59:50;50;45;
76679;PMS5003;65597;51.520;-0.224;2022-12-18T03:02:16;54;40;
76679;PMS5003;65597;51.520;-0.224;2022-12-18T03:04:39;47;43;
76679;PMS5003;65597;51.520;-0.224;2022-12-18T03:07:05;45;40;
76679;PMS5003;65597;51.520;-0.224;2022-12-18T03:09:31;47;44;
76679;PMS5003;65597;51.520;-0.224;2022-12-18T03:11:56;54;46;
76679;PMS5003;65597;51.520;-0.224;2022-12-18T03:14:21;54;42;
76679;PMS5003;65597;51.520;-0.224;2022-12-18T03:16:47;55;47;
76679;PMS5003;65597;51.520;-0.224;2022-12-18T03:19:13;51;46;
76679;PMS5003;65597;51.520;-0.224;2022-12-18T03:21:40;45;40;
76679;PMS5003;65597;51.520;-0.224;2022-12-18T03:24:03;47;42;
76679;PMS5003;65597;51.520;-0.224;2022-12-18T03:26:27;49;44;
76679;PMS5003;65597;51.520;-0.224;2022-12-18T03:28:53;51;45;
76679;PMS5003;65597;51.520;-0.224;2022-12-18T03:31:18;44;39;
76679;PMS5003;65597;51.520;-0.224;2022-12-18T03:33:45;43;36;
76679;PMS5003;65597;51.520;-0.224;2022-12-18T03:36:09;53;45;
76679;PMS5003;65597;51.520;-0.224;2022-12-18T03:38:34;42;34;
76679;PMS5003;65597;51.520;-0.224;2022-12-18T03:41:00;38;34;
76679;PMS5003;65597;51.520;-0.224;2022-12-18T03:43:28;35;33;
76679;PMS5003;65597;51.520;-0.224;2022-12-18T03:45:51;38;34;
76679;PMS5003;65597;51.520;-0.224;2022-12-18T03:48:16;42;37;
76679;PMS5003;65597;51.520;-0.224;2022-12-18T03:50:42;35;30;
76679;PMS5003;65597;51.520;-0.224;2022-12-18T03:53:09;38;35;
76679;PMS5003;65597;51.520;-0.224;2022-12-18T03:55:32;39;36;
76679;PMS5003;65597;51.520;-0.224;2022-12-18T03:57:57;43;33;
76679;PMS5003;65597;51.520;-0.224;2022-12-18T04:00:23;35;32;
76679;PMS5003;65597;51.520;-0.224;2022-12-18T04:02:49;42;37;
76679;PMS5003;65597;51.520;-0.224;2022-12-18T04:05:13;36;31;
76679;PMS5003;65597;51.520;-0.224;2022-12-18T04:07:39;40;34;
76679;PMS5003;65597;51.520;-0.224;2022-12-18T04:10:05;39;32;
76679;PMS5003;65597;51.520;-0.224;2022-12-18T04:12:30;44;40;
76679;PMS5003;65597;51.520;-0.224;2022-12-18T04:14:56;39;34;
76679;PMS5003;65597;51.520;-0.224;2022-12-18T04:17:21;32;32;
76679;PMS5003;65597;51.520;-0.224;2022-12-18T04:19:46;42;39;
76679;PMS5003;65597;51.520;-0.224;2022-12-18T04:22:11;40;34;
76679;PMS5003;65597;51.520;-0.224;2022-12-18T04:24:36;35;29;
76679;PMS5003;65597;51.520;-0.224;2022-12-18T04:27:02;44;32;
76679;PMS5003;65597;51.520;-0.224;2022-12-18T04:29:27;44;35;
76679;PMS5003;65597;51.520;-0.224;2022-12-18T04:31:53;41;35;
76679;PMS5003;65597;51.520;-0.224;2022-12-18T04:34:19;42;34;
76679;PMS5003;65597;51.520;-0.224;2022-12-18T04:36:44;38;32;
76679;PMS5003;65597;51.520;-0.224;2022-12-18T04:39:10;36;32;
76679;PMS5003;65597;51.520;-0.224;2022-12-18T04:41:35;36;31;
76679;PMS5003;65597;51.520;-0.224;2022-12-18T04:44:01;39;34;
76679;PMS5003;65597;51.520;-0.224;2022-12-18T04:46:26;32;31;
76679;PMS5003;65597;51.520;-0.224;2022-12-18T04:48:51;39;33;
76679;PMS5003;65597;51.520;-0.224;2022-12-18T04:51:16;42;34;
76679;PMS5003;65597;51.520;-0.224;2022-12-18T04:53:42;28;28;
76679;PMS5003;65597;51.520;-0.224;2022-12-18T04:56:09;37;31;
76679;PMS5003;65597;51.520;-0.224;2022-12-18T04:58:33;41;36;
76679;PMS5003;65597;51.520;-0.224;2022-12-18T05:00:59;47;38;
76679;PMS5003;65597;51.520;-0.224;2022-12-18T05:03:24;38;33;
76679;PMS5003;65597;51.520;-0.224;2022-12-18T05:05:49;39;33;
76679;PMS5003;65597;51.520;-0.224;2022-12-18T05:08:15;38;33;
76679;PMS5003;65597;51.520;-0.224;2022-12-18T05:10:40;29;28;
76679;PMS5003;65597;51.520;-0.224;2022-12-18T05:13:05;32;29;
76679;PMS5003;65597;51.520;-0.224;2022-12-18T05:15:31;36;35;
76679;PMS5003;65597;51.520;-0.224;2022-12-18T05:17:56;37;28;
76679;PMS5003;65597;51.520;-0.224;2022-12-18T05:20:22;36;33;
76679;PMS5003;65597;51.520;-0.224;2022-12-18T05:22:47;34;29;
76679;PMS5003;65597;51.520;-0.224;2022-12-18T05:25:12;34;29;
76679;PMS5003;65597;51.520;-0.224;2022-12-18T05:27:38;35;33;
76679;PMS5003;65597;51.520;-0.224;2022-12-18T05:30:04;36;32;
76679;PMS5003;65597;51.520;-0.224;2022-12-18T05:32:29;37;34;
76679;PMS5003;65597;51.520;-0.224;2022-12-18T05:34:54;36;29;
76679;PMS5003;65597;51.520;-0.224;2022-12-18T05:37:20;34;32;
76679;PMS5003;65597;51.520;-0.224;2022-12-18T05:39:45;39;34;
76679;PMS5003;65597;51.520;-0.224;2022-12-18T05:42:10;39;34;
76679;PMS5003;65597;51.520;-0.224;2022-12-18T05:44:35;36;34;
76679;PMS5003;65597;51.520;-0.224;2022-12-18T05:47:01;35;32;
76679;PMS5003;65597;51.520;-0.224;2022-12-18T05:49:27;33;32;
76679;PMS5003;65597;51.520;-0.224;2022-12-18T05:51:52;33;30;
76679;PMS5003;65597;51.520;-0.224;2022-12-18T05:54:18;43;36;
76679;PMS5003;65597;51.520;-0.224;2022-12-18T05:56:43;42;35;
76679;PMS5003;65597;51.520;-0.224;2022-12-18T05:59:09;42;35;
76679;PMS5003;65597;51.520;-0.224;2022-12-18T06:01:34;41;36;
76679;PMS5003;65597;51.520;-0.224;2022-12-18T06:04:00;46;37;
76679;PMS5003;65597;51.520;-0.224;2022-12-18T06:06:26;43;37;
76679;PMS5003;65597;51.520;-0.224;2022-12-18T06:08:51;42;37;
76679;PMS5003;65597;51.520;-0.224;2022-12-18T06:11:19;40;33;
76679;PMS5003;65597;51.520;-0.224;2022-12-18T06:13:42;37;34;
76679;PMS5003;65597;51.520;-0.224;2022-12-18T06:16:07;46;39;
76679;PMS5003;65597;51.520;-0.224;2022-12-18T06:18:33;36;33;
76679;PMS5003;65597;51.520;-0.224;2022-12-18T06:20:58;39;36;
76679;PMS5003;65597;51.520;-0.224;2022-12-18T06:23:23;38;35;
76679;PMS5003;65597;51.520;-0.224;2022-12-18T06:25:48;36;32;
76679;PMS5003;65597;51.520;-0.224;2022-12-18T06:28:13;43;38;
76679;PMS5003;65597;51.520;-0.224;2022-12-18T06:30:39;43;41;
76679;PMS5003;65597;51.520;-0.224;2022-12-18T06:33:04;42;36;
76679;PMS5003;65597;51.520;-0.224;2022-12-18T06:35:29;44;38;
76679;PMS5003;65597;51.520;-0.224;2022-12-18T06:37:54;43;38;
76679;PMS5003;65597;51.520;-0.224;2022-12-18T06:40:20;38;36;
76679;PMS5003;65597;51.520;-0.224;2022-12-18T06:42:45;47;40;
76679;PMS5003;65597;51.520;-0.224;2022-12-18T06:45:10;46;41;
76679;PMS5003;65597;51.520;-0.224;2022-12-18T06:47:35;41;36;
76679;PMS5003;65597;51.520;-0.224;2022-12-18T06:50:01;50;41;
76679;PMS5003;65597;51.520;-0.224;2022-12-18T06:52:27;43;40;
76679;PMS5003;65597;51.520;-0.224;2022-12-18T06:54:52;41;37;
76679;PMS5003;65597;51.520;-0.224;2022-12-18T06:57:17;46;40;
76679;PMS5003;65597;51.520;-0.224;2022-12-18T06:59:42;45;37;
76679;PMS5003;65597;51.520;-0.224;2022-12-18T07:02:10;43;34;
76679;PMS5003;65597;51.520;-0.224;2022-12-18T07:04:33;51;40;
76679;PMS5003;65597;51.520;-0.224;2022-12-18T07:06:58;51;45;
76679;PMS5003;65597;51.520;-0.224;2022-12-18T07:09:24;49;40;
76679;PMS5003;65597;51.520;-0.224;2022-12-18T07:11:50;43;38;
76679;PMS5003;65597;51.520;-0.224;2022-12-18T07:14:15;39;38;
76679;PMS5003;65597;51.520;-0.224;2022-12-18T07:16:40;49;42;
76679;PMS5003;65597;51.520;-0.224;2022-12-18T07:19:05;45;39;
76679;PMS5003;65597;51.520;-0.224;2022-12-18T07:21:31;46;41;
76679;PMS5003;65597;51.520;-0.224;2022-12-18T07:23:56;44;37;
76679;PMS5003;65597;51.520;-0.224;2022-12-18T07:26:22;42;36;
76679;PMS5003;65597;51.520;-0.224;2022-12-18T07:28:47;47;40;
76679;PMS5003;65597;51.520;-0.224;2022-12-18T07:31:14;45;37;
76679;PMS5003;65597;51.520;-0.224;2022-12-18T07:33:38;41;38;
76679;PMS5003;65597;51.520;-0.224;2022-12-18T07:36:05;45;41;
76679;PMS5003;65597;51.520;-0.224;2022-12-18T07:38:30;36;34;
76679;PMS5003;65597;51.520;-0.224;2022-12-18T07:40:59;39;36;
76679;PMS5003;65597;51.520;-0.224;2022-12-18T07:43:20;37;34;
76679;PMS5003;65597;51.520;-0.224;2022-12-18T07:45:48;48;41;
76679;PMS5003;65597;51.520;-0.224;2022-12-18T07:48:11;39;36;
76679;PMS5003;65597;51.520;-0.224;2022-12-18T07:50:36;44;37;
76679;PMS5003;65597;51.520;-0.224;2022-12-18T07:53:01;43;36;
76679;PMS5003;65597;51.520;-0.224;2022-12-18T07:55:27;38;34;
76679;PMS5003;65597;51.520;-0.224;2022-12-18T07:57:52;50;44;
76679;PMS5003;65597;51.520;-0.224;2022-12-18T08:00:17;37;32;
76679;PMS5003;65597;51.520;-0.224;2022-12-18T08:02:43;40;35;
76679;PMS5003;65597;51.520;-0.224;2022-12-18T08:05:08;53;43;
76679;PMS5003;65597;51.520;-0.224;2022-12-18T08:07:34;43;38;
76679;PMS5003;65597;51.520;-0.224;2022-12-18T08:09:59;52;43;
76679;PMS5003;65597;51.520;-0.224;2022-12-18T08:12:24;40;36;
76679;PMS5003;65597;51.520;-0.224;2022-12-18T08:14:50;44;40;
76679;PMS5003;65597;51.520;-0.224;2022-12-18T08:17:15;40;35;
76679;PMS5003;65597;51.520;-0.224;2022-12-18T08:19:41;46;38;
76679;PMS5003;65597;51.520;-0.224;2022-12-18T08:22:07;47;40;
76679;PMS5003;65597;51.520;-0.224;2022-12-18T08:24:33;38;35;
76679;PMS5003;65597;51.520;-0.224;2022-12-18T08:26:58;47;44;
76679;PMS5003;65597;51.520;-0.224;2022-12-18T08:29:23;39;37;
76679;PMS5003;65597;51.520;-0.224;2022-12-18T08:31:49;45;38;
76679;PMS5003;65597;51.520;-0.224;2022-12-18T08:34:14;43;39;
76679;PMS5003;65597;51.520;-0.224;2022-12-18T08:36:39;40;37;
76679;PMS5003;65597;51.520;-0.224;2022-12-18T08:39:05;44;38;
76679;PMS5003;65597;51.520;-0.224;2022-12-18T08:41:30;43;37;
76679;PMS5003;65597;51.520;-0.224;2022-12-18T08:43:56;48;38;
76679;PMS5003;65597;51.520;-0.224;2022-12-18T08:46:22;43;36;
76679;PMS5003;65597;51.520;-0.224;2022-12-18T08:48:47;55;43;
76679;PMS5003;65597;51.520;-0.224;2022-12-18T08:51:12;40;36;
76679;PMS5003;65597;51.520;-0.224;2022-12-18T08:53:38;47;37;
76679;PMS5003;65597;51.520;-0.224;2022-12-18T08:56:04;51;42;
76679;PMS5003;65597;51.520;-0.224;2022-12-18T08:58:29;46;40;
76679;PMS5003;65597;51.520;-0.224;2022-12-18T09:00:59;44;39;
76679;PMS5003;65597;51.520;-0.224;2022-12-18T09:03:20;38;34;
76679;PMS5003;65597;51.520;-0.224;2022-12-18T09:05:46;52;43;
76679;PMS5003;65597;51.520;-0.224;2022-12-18T09:08:11;50;44;
76679;PMS5003;65597;51.520;-0.224;2022-12-18T09:10:41;45;40;
76679;PMS5003;65597;51.520;-0.224;2022-12-18T09:13:02;48;41;
76679;PMS5003;65597;51.520;-0.224;2022-12-18T09:15:27;40;37;
76679;PMS5003;65597;51.520;-0.224;2022-12-18T09:17:52;49;38;
76679;PMS5003;65597;51.520;-0.224;2022-12-18T09:20:18;42;40;
76679;PMS5003;65597;51.520;-0.224;2022-12-18T09:22:43;48;46;
76679;PMS5003;65597;51.520;-0.224;2022-12-18T09:25:08;52;42;
76679;PMS5003;65597;51.520;-0.224;2022-12-18T09:27:34;53;42;
76679;PMS5003;65597;51.520;-0.224;2022-12-18T09:30:00;51;38;
76679;PMS5003;65597;51.520;-0.224;2022-12-18T09:32:25;47;40;
76679;PMS5003;65597;51.520;-0.224;2022-12-18T09:34:51;41;39;
76679;PMS5003;65597;51.520;-0.224;2022-12-18T09:37:16;42;39;
76679;PMS5003;65597;51.520;-0.224;2022-12-18T09:39:41;51;41;
76679;PMS5003;65597;51.520;-0.224;2022-12-18T09:42:09;49;42;
76679;PMS5003;65597;51.520;-0.224;2022-12-18T09:44:33;55;46;
76679;PMS5003;65597;51.520;-0.224;2022-12-18T09:47:02;43;41;
76679;PMS5003;65597;51.520;-0.224;2022-12-18T09:49:23;47;40;
76679;PMS5003;65597;51.520;-0.224;2022-12-18T09:51:49;49;41;
76679;PMS5003;65597;51.520;-0.224;2022-12-18T09:54:15;44;42;
76679;PMS5003;65597;51.520;-0.224;2022-12-18T09:56:40;45;41;
76679;PMS5003;65597;51.520;-0.224;2022-12-18T09:59:05;41;38;
76679;PMS5003;65597;51.520;-0.224;2022-12-18T10:01:30;42;40;
76679;PMS5003;65597;51.520;-0.224;2022-12-18T10:03:55;55;44;
76679;PMS5003;65597;51.520;-0.224;2022-12-18T10:06:21;47;45;
76679;PMS5003;65597;51.520;-0.224;2022-12-18T10:08:49;52;44;
76679;PMS5003;65597;51.520;-0.224;2022-12-18T10:11:20;40;39;
76679;PMS5003;65597;51.520;-0.224;2022-12-18T10:13:38;54;49;
76679;PMS5003;65597;51.520;-0.224;2022-12-18T10:16:05;50;43;
76679;PMS5003;65597;51.520;-0.224;2022-12-18T10:18:31;41;37;
76679;PMS5003;65597;51.520;-0.224;2022-12-18T10:20:53;53;44;
76679;PMS5003;65597;51.520;-0.224;2022-12-18T10:23:19;51;47;
76679;PMS5003;65597;51.520;-0.224;2022-12-18T10:25:46;49;43;
76679;PMS5003;65597;51.520;-0.224;2022-12-18T10:28:09;45;40;
76679;PMS5003;65597;51.520;-0.224;2022-12-18T10:30:34;45;43;
76679;PMS5003;65597;51.520;-0.224;2022-12-18T10:33:00;55;44;
76679;PMS5003;65597;51.520;-0.224;2022-12-18T10:35:26;47;42;
76679;PMS5003;65597;51.520;-0.224;2022-12-18T10:38:00;46;40;
76679;PMS5003;65597;51.520;-0.224;2022-12-18T10:40:17;49;41;
76679;PMS5003;65597;51.520;-0.224;2022-12-18T10:42:42;50;42;
76679;PMS5003;65597;51.520;-0.224;2022-12-18T10:45:09;45;44;
76679;PMS5003;65597;51.520;-0.224;2022-12-18T10:47:33;43;40;
76679;PMS5003;65597;51.520;-0.224;2022-12-18T10:49:59;53;46;
76679;PMS5003;65597;51.520;-0.224;2022-12-18T10:52:25;54;45;
76679;PMS5003;65597;51.520;-0.224;2022-12-18T10:54:51;52;46;
76679;PMS5003;65597;51.520;-0.224;2022-12-18T10:57:17;45;43;
76679;PMS5003;65597;51.520;-0.224;2022-12-18T11:02:07;52;46;
76679;PMS5003;65597;51.520;-0.224;2022-12-18T11:04:32;50;45;
76679;PMS5003;65597;51.520;-0.224;2022-12-18T11:06:58;50;41;
76679;PMS5003;65597;51.520;-0.224;2022-12-18T11:09:23;48;41;
76679;PMS5003;65597;51.520;-0.224;2022-12-18T11:11:48;50;44;
76679;PMS5003;65597;51.520;-0.224;2022-12-18T11:14:16;59;50;
76679;PMS5003;65597;51.520;-0.224;2022-12-18T11:16:42;52;48;
76679;PMS5003;65597;51.520;-0.224;2022-12-18T11:19:12;54;47;
76679;PMS5003;65597;51.520;-0.224;2022-12-18T11:21:30;45;40;
76679;PMS5003;65597;51.520;-0.224;2022-12-18T11:23:56;51;43;
76679;PMS5003;65597;51.520;-0.224;2022-12-18T11:26:21;53;47;
76679;PMS5003;65597;51.520;-0.224;2022-12-18T11:28:47;64;52;
76679;PMS5003;65597;51.520;-0.224;2022-12-18T11:31:17;43;41;
76679;PMS5003;65597;51.520;-0.224;2022-12-18T11:33:37;56;50;
76679;PMS5003;65597;51.520;-0.224;2022-12-18T11:36:03;58;47;
76679;PMS5003;65597;51.520;-0.224;2022-12-18T11:38:30;54;45;
76679;PMS5003;65597;51.520;-0.224;2022-12-18T11:40:55;53;45;
76679;PMS5003;65597;51.520;-0.224;2022-12-18T11:43:21;54;45;
76679;PMS5003;65597;51.520;-0.224;2022-12-18T11:45:47;42;41;
76679;PMS5003;65597;51.520;-0.224;2022-12-18T11:48:13;46;44;
76679;PMS5003;65597;51.520;-0.224;2022-12-18T11:50:41;51;46;
76679;PMS5003;65597;51.520;-0.224;2022-12-18T11:53:02;49;43;
76679;PMS5003;65597;51.520;-0.224;2022-12-18T11:55:47;48;42;
76679;PMS5003;65597;51.520;-0.224;2022-12-18T11:57:54;46;41;
76679;PMS5003;65597;51.520;-0.224;2022-12-18T12:00:19;47;43;
76679;PMS5003;65597;51.520;-0.224;2022-12-18T12:02:49;53;48;
76679;PMS5003;65597;51.520;-0.224;2022-12-18T12:05:14;49;44;
76679;PMS5003;65597;51.520;-0.224;2022-12-18T12:07:38;50;47;
76679;PMS5003;65597;51.520;-0.224;2022-12-18T12:10:04;58;49;
76679;PMS5003;65597;51.520;-0.224;2022-12-18T12:12:30;56;47;
76679;PMS5003;65597;51.520;-0.224;2022-12-18T12:14:54;49;45;
76679;PMS5003;65597;51.520;-0.224;2022-12-18T12:17:20;43;42;
76679;PMS5003;65597;51.520;-0.224;2022-12-18T12:19:45;58;52;
76679;PMS5003;65597;51.520;-0.224;2022-12-18T12:22:11;57;50;
76679;PMS5003;65597;51.520;-0.224;2022-12-18T12:24:38;48;46;
76679;PMS5003;65597;51.520;-0.224;2022-12-18T12:27:02;54;47;
76679;PMS5003;65597;51.520;-0.224;2022-12-18T12:29:29;57;51;
76679;PMS5003;65597;51.520;-0.224;2022-12-18T12:31:55;51;47;
76679;PMS5003;65597;51.520;-0.224;2022-12-18T12:34:17;49;47;
76679;PMS5003;65597;51.520;-0.224;2022-12-18T12:36:45;63;52;
76679;PMS5003;65597;51.520;-0.224;2022-12-18T12:39:08;54;49;
76679;PMS5003;65597;51.520;-0.224;2022-12-18T12:41:33;51;44;
76679;PMS5003;65597;51.520;-0.224;2022-12-18T12:43:59;48;45;
76679;PMS5003;65597;51.520;-0.224;2022-12-18T12:46:23;54;50;
76679;PMS5003;65597;51.520;-0.224;2022-12-18T12:48:50;48;43;
76679;PMS5003;65597;51.520;-0.224;2022-12-18T12:51:16;47;42;
76679;PMS5003;65597;51.520;-0.224;2022-12-18T12:53:40;58;48;
76679;PMS5003;65597;51.520;-0.224;2022-12-18T12:56:05;54;47;
76679;PMS5003;65597;51.520;-0.224;2022-12-18T12:58:33;47;43;
76679;PMS5003;65597;51.520;-0.224;2022-12-18T13:00:58;53;45;
76679;PMS5003;65597;51.520;-0.224;2022-12-18T13:03:24;47;45;
76679;PMS5003;65597;51.520;-0.224;2022-12-18T13:05:48;48;42;
76679;PMS5003;65597;51.520;-0.224;2022-12-18T13:08:22;55;48;
76679;PMS5003;65597;51.520;-0.224;2022-12-18T13:10:38;56;48;
76679;PMS5003;65597;51.520;-0.224;2022-12-18T13:13:04;54;44;
76679;PMS5003;65597;51.520;-0.224;2022-12-18T13:15:31;48;44;
76679;PMS5003;65597;51.520;-0.224;2022-12-18T13:18:04;48;43;
76679;PMS5003;65597;51.520;-0.224;2022-12-18T13:20:19;46;40;
76679;PMS5003;65597;51.520;-0.224;2022-12-18T13:22:45;51;44;
76679;PMS5003;65597;51.520;-0.224;2022-12-18T13:27:46;40;36;
76679;PMS5003;65597;51.520;-0.224;2022-12-18T13:30:01;41;38;
76679;PMS5003;65597;51.520;-0.224;2022-12-18T13:32:31;41;37;
76679;PMS5003;65597;51.520;-0.224;2022-12-18T13:39:43;35;33;
76679;PMS5003;65597;51.520;-0.224;2022-12-18T13:44:34;31;29;
76679;PMS5003;65597;51.520;-0.224;2022-12-18T13:46:59;39;32;
76679;PMS5003;65597;51.520;-0.224;2022-12-18T13:49:25;40;33;
76679;PMS5003;65597;51.520;-0.224;2022-12-18T13:51:50;41;34;
76679;PMS5003;65597;51.520;-0.224;2022-12-18T13:54:17;33;29;
76679;PMS5003;65597;51.520;-0.224;2022-12-18T13:56:43;30;29;
76679;PMS5003;65597;51.520;-0.224;2022-12-18T13:59:10;41;32;
76679;PMS5003;65597;51.520;-0.224;2022-12-18T14:01:31;33;31;
76679;PMS5003;65597;51.520;-0.224;2022-12-18T14:06:22;37;32;
76679;PMS5003;65597;51.520;-0.224;2022-12-18T14:08:47;30;28;
76679;PMS5003;65597;51.520;-0.224;2022-12-18T14:11:18;27;26;
76679;PMS5003;65597;51.520;-0.224;2022-12-18T14:13:39;32;27;
76679;PMS5003;65597;51.520;-0.224;2022-12-18T14:16:04;37;30;
76679;PMS5003;65597;51.520;-0.224;2022-12-18T14:18:30;29;27;
76679;PMS5003;65597;51.520;-0.224;2022-12-18T14:20:54;33;30;
76679;PMS5003;65597;51.520;-0.224;2022-12-18T14:23:26;31;29;
76679;PMS5003;65597;51.520;-0.224;2022-12-18T14:25:45;40;30;
76679;PMS5003;65597;51.520;-0.224;2022-12-18T14:28:12;28;23;
76679;PMS5003;65597;51.520;-0.224;2022-12-18T14:30:35;24;23;
76679;PMS5003;65597;51.520;-0.224;2022-12-18T14:33:01;26;24;
76679;PMS5003;65597;51.520;-0.224;2022-12-18T14:35:25;25;21;
76679;PMS5003;65597;51.520;-0.224;2022-12-18T14:37:50;26;24;
76679;PMS5003;65597;51.520;-0.224;2022-12-18T14:40:16;26;25;
76679;PMS5003;65597;51.520;-0.224;2022-12-18T14:42:41;32;24;
76679;PMS5003;65597;51.520;-0.224;2022-12-18T14:47:32;31;27;
76679;PMS5003;65597;51.520;-0.224;2022-12-18T14:49:57;36;30;
76679;PMS5003;65597;51.520;-0.224;2022-12-18T14:52:27;33;28;
76679;PMS5003;65597;51.520;-0.224;2022-12-18T14:54:48;22;21;
76679;PMS5003;65597;51.520;-0.224;2022-12-18T14:57:16;20;20;
76679;PMS5003;65597;51.520;-0.224;2022-12-18T14:59:39;30;23;
76679;PMS5003;65597;51.520;-0.224;2022-12-18T15:02:09;27;23;
76679;PMS5003;65597;51.520;-0.224;2022-12-18T15:04:31;22;21;
76679;PMS5003;65597;51.520;-0.224;2022-12-18T15:07:03;21;21;
76679;PMS5003;65597;51.520;-0.224;2022-12-18T15:09:22;33;29;
76679;PMS5003;65597;51.520;-0.224;2022-12-18T15:11:47;24;21;
76679;PMS5003;65597;51.520;-0.224;2022-12-18T15:16:37;23;23;
76679;PMS5003;65597;51.520;-0.224;2022-12-18T15:19:02;28;21;
76679;PMS5003;65597;51.520;-0.224;2022-12-18T15:21:27;23;22;
76679;PMS5003;65597;51.520;-0.224;2022-12-18T15:23:52;20;19;
76679;PMS5003;65597;51.520;-0.224;2022-12-18T15:26:18;28;26;
76679;PMS5003;65597;51.520;-0.224;2022-12-18T15:28:44;29;24;
76679;PMS5003;65597;51.520;-0.224;2022-12-18T15:33:35;26;25;
76679;PMS5003;65597;51.520;-0.224;2022-12-18T15:36:00;30;22;
76679;PMS5003;65597;51.520;-0.224;2022-12-18T15:38:25;24;23;
76679;PMS5003;65597;51.520;-0.224;2022-12-18T15:40:51;21;20;
76679;PMS5003;65597;51.520;-0.224;2022-12-18T15:43:16;22;20;
76679;PMS5003;65597;51.520;-0.224;2022-12-18T15:45:42;26;24;
76679;PMS5003;65597;51.520;-0.224;2022-12-18T15:48:11;29;24;
76679;PMS5003;65597;51.520;-0.224;2022-12-18T15:50:33;31;26;
76679;PMS5003;65597;51.520;-0.224;2022-12-18T15:52:58;21;20;
76679;PMS5003;65597;51.520;-0.224;2022-12-18T15:55:23;24;23;
76679;PMS5003;65597;51.520;-0.224;2022-12-18T15:57:49;26;26;
76679;PMS5003;65597;51.520;-0.224;2022-12-18T16:00:14;23;23;
76679;PMS5003;65597;51.520;-0.224;2022-12-18T16:02:39;28;28;
76679;PMS5003;65597;51.520;-0.224;2022-12-18T16:05:05;29;26;
76679;PMS5003;65597;51.520;-0.224;2022-12-18T16:07:30;19;19;
76679;PMS5003;65597;51.520;-0.224;2022-12-18T16:09:56;22;20;
76679;PMS5003;65597;51.520;-0.224;2022-12-18T16:12:22;19;19;
76679;PMS5003;65597;51.520;-0.224;2022-12-18T16:14:46;18;18;